Time;durP1;ratioP1;P1;durP2;ratioP2;P2;SDS_P1;SDS_P2;PMS_P1;PMS_P2;Temp;Humidity;BMP_temperature;BMP_pressure;BME280_temperature;BME280_humidity;BME280_pressure;Samples;Min_cycle;Max_cycle;Signal;HPM_P1;HPM_P2
2021/12/29 15:42:24;;;;;;;4.38;2.00;;;;;;;;;;5123500;27;20118;-78
2021/12/29 15:44:50;;;;;;;6.20;1.38;;;;;;;;;;5108530;28;20056;-74
2021/12/29 15:47:16;;;;;;;2.88;1.38;;;;;;;;;;5097276;28;20032;-78
2021/12/29 15:49:42;;;;;;;4.93;1.35;;;;;;;;;;5106343;28;20031;-80
2021/12/29 15:52:08;;;;;;;3.65;1.23;;;;;;;;;;5106850;28;20028;-73
2021/12/29 15:54:35;;;;;;;5.30;1.65;;;;;;;;;;5114098;28;20019;-73
2021/12/29 15:57:03;;;;;;;6.45;1.40;;;;;;;;;;5112754;28;20122;-74
2021/12/29 15:59:29;;;;;;;5.97;2.10;;;;;;;;;;5111540;28;20028;-74
2021/12/29 16:01:55;;;;;;;8.07;1.48;;;;;;;;;;5119245;28;20513;-74
2021/12/29 16:04:21;;;;;;;3.08;1.23;;;;;;;;;;5115935;28;20111;-73
2021/12/29 16:06:48;;;;;;;5.70;1.58;;;;;;;;;;5108367;28;20023;-73
2021/12/29 16:09:14;;;;;;;3.97;1.58;;;;;;;;;;5113323;28;20031;-74
2021/12/29 16:11:40;;;;;;;3.90;1.77;;;;;;;;;;5109067;28;20032;-72
2021/12/29 16:14:06;;;;;;;5.07;1.20;;;;;;;;;;5116439;28;20510;-75
2021/12/29 16:16:32;;;;;;;2.85;1.23;;;;;;;;;;5114507;28;20031;-76
2021/12/29 16:18:58;;;;;;;4.60;1.50;;;;;;;;;;5110007;28;20024;-76
2021/12/29 16:21:24;;;;;;;2.33;1.27;;;;;;;;;;5114449;28;20667;-75
2021/12/29 16:23:51;;;;;;;3.40;1.45;;;;;;;;;;5110330;28;20034;-75
2021/12/29 16:26:17;;;;;;;4.80;1.60;;;;;;;;;;5113826;28;20071;-75
2021/12/29 16:28:43;;;;;;;5.40;1.75;;;;;;;;;;5118233;28;20026;-74
2021/12/29 16:31:09;;;;;;;2.33;1.02;;;;;;;;;;5114789;28;20490;-73
2021/12/29 16:33:35;;;;;;;6.07;2.85;;;;;;;;;;5113484;28;20335;-76
2021/12/29 16:36:01;;;;;;;5.90;1.75;;;;;;;;;;5111038;28;20106;-74
2021/12/29 16:38:27;;;;;;;5.47;1.65;;;;;;;;;;5110461;28;20022;-75
2021/12/29 16:40:54;;;;;;;3.97;1.80;;;;;;;;;;5118809;28;20418;-74
2021/12/29 16:43:20;;;;;;;7.68;1.75;;;;;;;;;;5114075;28;20538;-75
2021/12/29 16:45:46;;;;;;;5.85;1.80;;;;;;;;;;5111453;28;20020;-74
2021/12/29 16:48:12;;;;;;;4.18;2.00;;;;;;;;;;5115032;28;20028;-77
2021/12/29 16:50:39;;;;;;;3.10;1.88;;;;;;;;;;5113760;28;20020;-76
2021/12/29 16:53:05;;;;;;;5.53;1.63;;;;;;;;;;5107220;28;20037;-75
2021/12/29 16:55:31;;;;;;;4.15;1.80;;;;;;;;;;5105337;28;20023;-76
2021/12/29 16:57:57;;;;;;;6.60;1.58;;;;;;;;;;5090812;28;20053;-76
2021/12/29 17:00:23;;;;;;;8.38;2.00;;;;;;;;;;5080280;28;20031;-73
2021/12/29 17:02:50;;;;;;;4.13;1.65;;;;;;;;;;5086026;28;20039;-73
2021/12/29 17:05:16;;;;;;;2.58;1.50;;;;;;;;;;5082561;28;20077;-74
2021/12/29 17:07:43;;;;;;;4.22;1.42;;;;;;;;;;5083464;28;20054;-73
2021/12/29 17:10:11;;;;;;;7.78;2.00;;;;;;;;;;5081803;28;20027;-75
2021/12/29 17:12:38;;;;;;;8.70;1.90;;;;;;;;;;5082356;28;20067;-73
2021/12/29 17:15:05;;;;;;;3.78;2.00;;;;;;;;;;5098265;28;20020;-74
2021/12/29 17:17:32;;;;;;;7.35;1.40;;;;;;;;;;5090105;28;20015;-74
2021/12/29 17:20:00;;;;;;;8.15;1.95;;;;;;;;;;5090268;28;20092;-76
2021/12/29 17:22:27;;;;;;;9.30;2.47;;;;;;;;;;5092410;28;20031;-76
2021/12/29 17:24:54;;;;;;;6.72;2.13;;;;;;;;;;5088257;28;20073;-77
2021/12/29 17:27:21;;;;;;;3.70;1.58;;;;;;;;;;5083596;28;20103;-77
2021/12/29 17:29:48;;;;;;;5.40;1.67;;;;;;;;;;5089579;28;20044;-77
2021/12/29 17:32:14;;;;;;;4.95;1.75;;;;;;;;;;5086106;28;20067;-77
2021/12/29 17:34:40;;;;;;;3.78;2.05;;;;;;;;;;5088290;28;20565;-78
2021/12/29 17:37:07;;;;;;;6.53;1.90;;;;;;;;;;5087513;28;20045;-78
2021/12/29 17:39:34;;;;;;;4.65;2.08;;;;;;;;;;5088341;28;20035;-79
2021/12/29 17:42:00;;;;;;;4.82;2.22;;;;;;;;;;5092292;28;20051;-78
2021/12/29 17:44:27;;;;;;;5.30;2.30;;;;;;;;;;5093014;28;20049;-76
2021/12/29 17:46:54;;;;;;;4.07;1.80;;;;;;;;;;5086572;28;20263;-77
2021/12/29 17:49:21;;;;;;;7.72;2.30;;;;;;;;;;5089717;28;20419;-83
2021/12/29 17:51:47;;;;;;;6.22;1.98;;;;;;;;;;5089211;28;20166;-81
2021/12/29 17:54:14;;;;;;;6.38;2.30;;;;;;;;;;5091798;28;20111;-85
2021/12/29 17:56:40;;;;;;;5.30;1.88;;;;;;;;;;5096350;28;20141;-84
2021/12/29 17:59:07;;;;;;;5.50;1.90;;;;;;;;;;5103223;28;20470;-79
2021/12/29 18:01:34;;;;;;;5.60;2.45;;;;;;;;;;5097679;28;20040;-75
2021/12/29 18:04:00;;;;;;;4.20;1.60;;;;;;;;;;5099590;28;20017;-75
2021/12/29 18:06:26;;;;;;;5.32;1.83;;;;;;;;;;5102888;28;20411;-76
2021/12/29 18:08:52;;;;;;;9.05;2.53;;;;;;;;;;5102430;28;20028;-75
2021/12/29 18:11:18;;;;;;;3.20;1.63;;;;;;;;;;5098832;28;20445;-74
2021/12/29 18:13:50;;;;;;;5.85;2.40;;;;;;;;;;5094521;28;20498;-75
2021/12/29 18:16:18;;;;;;;5.82;2.20;;;;;;;;;;5090286;28;20028;-75
2021/12/29 18:18:45;;;;;;;4.97;1.98;;;;;;;;;;5090790;28;20114;-75
2021/12/29 18:21:11;;;;;;;6.13;2.53;;;;;;;;;;5097590;28;20039;-75
2021/12/29 18:23:38;;;;;;;6.43;2.28;;;;;;;;;;5100272;28;20031;-75
2021/12/29 18:26:04;;;;;;;8.82;2.80;;;;;;;;;;5100706;28;20514;-79
2021/12/29 18:28:30;;;;;;;8.68;2.80;;;;;;;;;;5102794;28;20020;-75
2021/12/29 18:30:57;;;;;;;4.70;1.90;;;;;;;;;;5096779;28;20024;-75
2021/12/29 18:33:23;;;;;;;10.80;2.65;;;;;;;;;;5098427;28;20038;-76
2021/12/29 18:35:49;;;;;;;7.00;2.38;;;;;;;;;;5097977;28;20475;-75
2021/12/29 18:38:15;;;;;;;4.68;2.08;;;;;;;;;;5100599;28;20384;-76
2021/12/29 18:40:42;;;;;;;8.13;2.78;;;;;;;;;;5101250;28;20039;-75
2021/12/29 18:43:09;;;;;;;5.72;2.17;;;;;;;;;;5099604;28;20396;-76
2021/12/29 18:45:35;;;;;;;13.45;2.53;;;;;;;;;;5100742;28;20024;-76
2021/12/29 18:48:02;;;;;;;8.88;2.08;;;;;;;;;;5091539;28;20039;-76
2021/12/29 18:50:28;;;;;;;6.80;2.15;;;;;;;;;;5099117;28;20509;-75
2021/12/29 18:52:55;;;;;;;7.22;2.40;;;;;;;;;;5090847;28;20042;-75
2021/12/29 18:55:22;;;;;;;5.43;2.40;;;;;;;;;;5089301;28;20020;-75
2021/12/29 18:57:48;;;;;;;9.30;2.72;;;;;;;;;;5090484;28;21415;-75
2021/12/29 19:00:16;;;;;;;3.97;1.80;;;;;;;;;;5091359;28;20020;-74
2021/12/29 19:02:42;;;;;;;6.45;2.00;;;;;;;;;;5089284;28;20115;-74
2021/12/29 19:05:16;;;;;;;6.22;2.33;;;;;;;;;;5093667;28;20538;-73
2021/12/29 19:07:43;;;;;;;7.22;2.00;;;;;;;;;;5097394;28;20020;-75
2021/12/29 19:10:09;;;;;;;4.78;1.80;;;;;;;;;;5097990;28;20028;-76
2021/12/29 19:12:37;;;;;;;7.60;2.35;;;;;;;;;;5092756;28;20036;-75
2021/12/29 19:15:04;;;;;;;6.38;2.05;;;;;;;;;;5098318;28;20541;-80
2021/12/29 19:17:30;;;;;;;6.15;2.03;;;;;;;;;;5098641;28;20036;-77
2021/12/29 19:19:56;;;;;;;4.57;1.92;;;;;;;;;;5099907;28;20065;-77
2021/12/29 19:22:22;;;;;;;8.45;2.20;;;;;;;;;;5100117;28;20039;-78
2021/12/29 19:24:48;;;;;;;5.78;2.00;;;;;;;;;;5093729;28;20035;-76
2021/12/29 19:27:14;;;;;;;6.28;1.95;;;;;;;;;;5097235;28;20490;-77
2021/12/29 19:29:41;;;;;;;5.53;2.00;;;;;;;;;;5097100;28;20023;-79
2021/12/29 19:32:07;;;;;;;5.88;1.70;;;;;;;;;;5096537;28;20479;-78
2021/12/29 19:34:34;;;;;;;4.47;2.20;;;;;;;;;;5102020;28;20035;-80
2021/12/29 19:37:05;;;;;;;7.00;1.83;;;;;;;;;;5096945;28;20078;-78
2021/12/29 19:39:32;;;;;;;5.13;2.08;;;;;;;;;;5088245;28;20035;-75
2021/12/29 19:41:59;;;;;;;8.32;2.70;;;;;;;;;;5089737;28;20059;-75
2021/12/29 19:44:25;;;;;;;5.57;2.00;;;;;;;;;;5096674;28;20030;-77
2021/12/29 19:46:51;;;;;;;6.13;2.10;;;;;;;;;;5096408;28;20524;-77
2021/12/29 19:49:19;;;;;;;9.05;2.63;;;;;;;;;;5097099;28;20089;-78
2021/12/29 19:51:46;;;;;;;7.43;2.38;;;;;;;;;;5091665;28;20035;-76
2021/12/29 19:54:13;;;;;;;6.03;2.80;;;;;;;;;;5092837;28;20077;-75
2021/12/29 19:56:39;;;;;;;10.05;3.45;;;;;;;;;;5097102;28;20407;-75
2021/12/29 19:59:05;;;;;;;10.30;2.50;;;;;;;;;;5098743;28;20033;-74
2021/12/29 20:01:32;;;;;;;7.88;2.75;;;;;;;;;;5091968;28;20040;-75
2021/12/29 20:03:58;;;;;;;7.97;2.33;;;;;;;;;;5090287;28;20023;-74
2021/12/29 20:06:25;;;;;;;7.50;2.50;;;;;;;;;;5091042;28;20081;-76
2021/12/29 20:08:51;;;;;;;5.75;2.40;;;;;;;;;;5090896;28;20031;-76
2021/12/29 20:11:18;;;;;;;15.65;7.95;;;;;;;;;;5092041;28;20032;-74
2021/12/29 20:13:44;;;;;;;7.55;4.10;;;;;;;;;;5091015;28;20440;-75
2021/12/29 20:16:12;;;;;;;5.75;3.10;;;;;;;;;;5095525;28;20035;-73
2021/12/29 20:18:38;;;;;;;7.63;3.25;;;;;;;;;;5095345;28;20035;-73
2021/12/29 20:21:05;;;;;;;7.70;2.50;;;;;;;;;;5092124;28;20515;-75
2021/12/29 20:23:32;;;;;;;8.10;2.97;;;;;;;;;;5093008;28;20028;-74
2021/12/29 20:25:58;;;;;;;7.75;2.95;;;;;;;;;;5096970;28;20422;-73
2021/12/29 20:28:24;;;;;;;7.53;2.40;;;;;;;;;;5097265;28;20705;-73
2021/12/29 20:30:50;;;;;;;7.05;2.78;;;;;;;;;;5093543;28;20091;-73
2021/12/29 20:33:22;;;;;;;7.88;2.45;;;;;;;;;;5089659;28;20128;-72
2021/12/29 20:35:48;;;;;;;10.68;3.38;;;;;;;;;;5100197;28;20030;-71
2021/12/29 20:38:14;;;;;;;7.90;2.45;;;;;;;;;;5100804;28;20032;-73
2021/12/29 20:40:41;;;;;;;8.10;3.08;;;;;;;;;;5099975;28;20132;-71
2021/12/29 20:43:07;;;;;;;8.98;2.75;;;;;;;;;;5100870;28;20027;-70
2021/12/29 20:45:33;;;;;;;10.82;2.53;;;;;;;;;;5096974;28;20030;-72
2021/12/29 20:47:59;;;;;;;7.95;3.05;;;;;;;;;;5100182;28;20022;-71
2021/12/29 20:50:26;;;;;;;11.43;2.85;;;;;;;;;;5099644;28;20035;-73
2021/12/29 20:52:52;;;;;;;9.45;2.90;;;;;;;;;;5098125;28;20024;-74
2021/12/29 20:55:20;;;;;;;8.30;2.60;;;;;;;;;;5090508;28;20024;-74
2021/12/29 20:57:47;;;;;;;7.63;2.33;;;;;;;;;;5095090;28;20030;-72
2021/12/29 21:00:14;;;;;;;8.30;2.50;;;;;;;;;;5095771;28;20039;-72
2021/12/29 21:02:41;;;;;;;6.55;2.30;;;;;;;;;;5092889;28;20032;-72
2021/12/29 21:05:08;;;;;;;7.80;2.40;;;;;;;;;;5094354;28;20032;-72
2021/12/29 21:07:39;;;;;;;10.00;3.70;;;;;;;;;;5098360;28;20032;-72
2021/12/29 21:10:11;;;;;;;9.02;3.13;;;;;;;;;;5097100;28;20039;-76
2021/12/29 21:12:38;;;;;;;8.70;2.30;;;;;;;;;;5097394;28;20024;-75
2021/12/29 21:15:06;;;;;;;10.27;3.20;;;;;;;;;;5099085;28;20024;-74
2021/12/29 21:17:32;;;;;;;8.93;3.15;;;;;;;;;;5095086;28;20023;-74
2021/12/29 21:19:58;;;;;;;12.60;4.18;;;;;;;;;;5099975;28;20093;-73
2021/12/29 21:22:24;;;;;;;19.23;5.88;;;;;;;;;;5100804;28;20109;-72
2021/12/29 21:24:52;;;;;;;29.20;10.60;;;;;;;;;;5101138;28;20428;-73
2021/12/29 21:27:21;;;;;;;79.45;35.50;;;;;;;;;;5096114;28;20073;-74
2021/12/29 21:29:48;;;;;;;42.28;18.58;;;;;;;;;;5114118;27;20030;-75
2021/12/29 21:32:14;;;;;;;38.75;17.00;;;;;;;;;;5095495;28;20035;-75
2021/12/29 21:34:41;;;;;;;88.72;42.63;;;;;;;;;;5092921;28;20020;-74
2021/12/29 21:37:07;;;;;;;109.53;59.00;;;;;;;;;;5093391;28;20031;-74
2021/12/29 21:39:34;;;;;;;107.88;60.88;;;;;;;;;;5093412;28;20078;-75
2021/12/29 21:42:00;;;;;;;77.22;42.35;;;;;;;;;;5088774;28;20063;-76
2021/12/29 21:44:26;;;;;;;285.88;164.20;;;;;;;;;;5093291;28;20085;-73
2021/12/29 21:46:53;;;;;;;220.50;121.28;;;;;;;;;;5098346;28;20032;-76
2021/12/29 21:49:19;;;;;;;231.45;128.57;;;;;;;;;;5094671;28;20035;-76
2021/12/29 21:51:46;;;;;;;107.70;59.05;;;;;;;;;;5093020;28;20078;-75
2021/12/29 21:54:12;;;;;;;285.20;138.43;;;;;;;;;;5089928;28;20747;-76
2021/12/29 21:56:38;;;;;;;130.40;62.92;;;;;;;;;;5094062;28;20367;-76
2021/12/29 21:59:05;;;;;;;344.20;161.07;;;;;;;;;;5095879;28;20019;-76
2021/12/29 22:01:31;;;;;;;214.52;89.22;;;;;;;;;;5095810;28;20449;-75
2021/12/29 22:03:59;;;;;;;396.48;176.45;;;;;;;;;;5092210;28;20055;-75
2021/12/29 22:06:26;;;;;;;125.93;53.15;;;;;;;;;;5091063;28;20031;-73
2021/12/29 22:08:52;;;;;;;118.85;53.53;;;;;;;;;;5095197;28;20047;-75
2021/12/29 22:11:19;;;;;;;56.40;25.27;;;;;;;;;;5091055;28;20036;-75
2021/12/29 22:13:46;;;;;;;51.30;25.02;;;;;;;;;;5097138;28;20016;-78
2021/12/29 22:16:12;;;;;;;57.70;26.88;;;;;;;;;;5094497;28;20057;-74
2021/12/29 22:18:41;;;;;;;34.65;17.92;;;;;;;;;;5093961;28;20024;-75
2021/12/29 22:21:07;;;;;;;41.65;19.65;;;;;;;;;;5094694;28;20062;-75
2021/12/29 22:23:34;;;;;;;54.40;23.48;;;;;;;;;;5090746;28;20016;-75
2021/12/29 22:26:00;;;;;;;30.02;11.57;;;;;;;;;;5093482;28;20061;-75
2021/12/29 22:28:26;;;;;;;26.05;9.73;;;;;;;;;;5101709;28;20376;-75
2021/12/29 22:30:54;;;;;;;25.75;11.30;;;;;;;;;;5099345;28;20558;-76
2021/12/29 22:33:21;;;;;;;13.13;5.35;;;;;;;;;;5095431;28;20063;-77
2021/12/29 22:35:52;;;;;;;11.55;4.97;;;;;;;;;;5089323;28;20051;-77
2021/12/29 22:38:18;;;;;;;12.40;3.88;;;;;;;;;;5097391;28;20086;-78
2021/12/29 22:40:45;;;;;;;9.00;2.88;;;;;;;;;;5101939;28;20052;-77
2021/12/29 22:43:12;;;;;;;6.28;2.08;;;;;;;;;;5097095;28;20042;-75
2021/12/29 22:45:39;;;;;;;6.75;2.53;;;;;;;;;;5094957;28;20028;-80
2021/12/29 22:48:06;;;;;;;8.88;2.72;;;;;;;;;;5096144;28;20032;-82
2021/12/29 22:50:34;;;;;;;6.35;2.45;;;;;;;;;;5090440;28;20046;-74
2021/12/29 22:53:01;;;;;;;5.25;1.90;;;;;;;;;;5101246;28;20016;-73
2021/12/29 22:55:27;;;;;;;7.72;2.42;;;;;;;;;;5094741;28;20481;-77
2021/12/29 22:57:53;;;;;;;6.18;2.30;;;;;;;;;;5091988;28;20103;-77
2021/12/29 23:00:38;;;;;;;5.25;2.00;;;;;;;;;;5095177;28;20024;-76
2021/12/29 23:03:05;;;;;;;9.88;3.17;;;;;;;;;;5092667;28;20032;-75
2021/12/29 23:05:35;;;;;;;6.93;2.10;;;;;;;;;;5096549;28;20030;-77
2021/12/29 23:08:01;;;;;;;4.95;1.98;;;;;;;;;;5094571;28;20119;-77
2021/12/29 23:10:27;;;;;;;5.60;2.40;;;;;;;;;;5091655;28;20020;-75
2021/12/29 23:12:54;;;;;;;8.93;2.55;;;;;;;;;;5082805;28;20039;-76
2021/12/29 23:15:23;;;;;;;7.13;2.17;;;;;;;;;;5091678;28;20089;-75
2021/12/29 23:17:50;;;;;;;8.80;2.92;;;;;;;;;;5079704;28;20036;-74
2021/12/29 23:20:19;;;;;;;8.95;3.20;;;;;;;;;;5093860;28;20036;-75
2021/12/29 23:22:50;;;;;;;6.70;3.08;;;;;;;;;;5097037;28;20073;-76
2021/12/29 23:25:23;;;;;;;9.35;3.28;;;;;;;;;;5092958;28;20020;-77
2021/12/29 23:30:34;;;;;;;7.63;3.08;;;;;;;;;;5093252;28;20123;-77
2021/12/29 23:33:02;;;;;;;10.38;3.10;;;;;;;;;;5093026;28;20056;-77
2021/12/29 23:35:29;;;;;;;8.95;2.92;;;;;;;;;;5095232;28;20068;-76
2021/12/29 23:37:55;;;;;;;9.80;3.20;;;;;;;;;;5096590;28;20063;-76
2021/12/29 23:40:21;;;;;;;9.20;3.08;;;;;;;;;;5078404;28;20566;-77
2021/12/29 23:42:47;;;;;;;6.18;2.60;;;;;;;;;;5079597;28;20032;-78
2021/12/29 23:45:14;;;;;;;10.57;3.03;;;;;;;;;;5096358;28;20024;-77
